createdAt,value
2022-09-04T00:03:05.272Z,0.00
2022-09-04T00:08:05.976Z,0.00
2022-09-04T00:13:05.133Z,0.00
2022-09-04T00:18:05.068Z,0.00
2022-09-04T00:23:05.004Z,0.00
2022-09-04T00:28:05.925Z,0.00
2022-09-04T00:33:04.937Z,0.00
2022-09-04T00:38:04.829Z,0.00
2022-09-04T00:43:04.757Z,0.00
2022-09-04T00:48:04.700Z,0.00
2022-09-04T00:53:06.110Z,0.00
2022-09-04T00:58:04.554Z,0.00
2022-09-04T01:03:04.481Z,0.00
2022-09-04T01:08:04.414Z,0.00
2022-09-04T01:13:04.364Z,0.00
2022-09-04T01:18:04.280Z,0.00
2022-09-04T01:23:04.287Z,0.00
2022-09-04T01:28:04.156Z,0.00
2022-09-04T01:33:04.098Z,0.00
2022-09-04T01:38:04.024Z,0.00
2022-09-04T01:43:03.991Z,0.00
2022-09-04T01:48:03.965Z,0.00
2022-09-04T01:53:03.862Z,0.00
2022-09-04T01:58:03.792Z,0.00
2022-09-04T02:03:03.745Z,0.00
2022-09-04T02:08:03.684Z,0.00
2022-09-04T02:13:03.623Z,0.00
2022-09-04T02:18:03.586Z,0.00
2022-09-04T02:23:03.520Z,0.00
2022-09-04T02:28:03.444Z,0.00
2022-09-04T02:33:03.373Z,0.00
2022-09-04T02:38:03.322Z,0.00
2022-09-04T02:43:03.209Z,0.00
2022-09-04T02:48:03.183Z,0.00
2022-09-04T02:53:03.081Z,0.00
2022-09-04T02:58:03.052Z,0.00
2022-09-04T03:03:02.969Z,0.00
2022-09-04T03:08:02.956Z,0.00
2022-09-04T03:13:02.805Z,0.00
2022-09-04T03:18:02.754Z,0.00
2022-09-04T03:23:02.709Z,0.00
2022-09-04T03:28:03.463Z,0.00
2022-09-04T03:33:02.581Z,0.00
2022-09-04T03:38:02.503Z,0.00
2022-09-04T03:43:02.438Z,0.00
2022-09-04T03:48:02.383Z,0.00
2022-09-04T03:53:02.299Z,0.00
2022-09-04T03:58:02.296Z,0.00
2022-09-04T04:03:02.247Z,0.00
2022-09-04T04:08:02.121Z,0.00
2022-09-04T04:13:02.063Z,1.00
2022-09-04T04:18:02.027Z,3.00
2022-09-04T04:23:01.915Z,7.00
2022-09-04T04:28:02.052Z,14.00
2022-09-04T04:33:01.810Z,23.00
2022-09-04T04:38:01.733Z,36.00
2022-09-04T04:43:01.678Z,54.00
2022-09-04T04:48:01.684Z,74.00
2022-09-04T04:53:01.546Z,89.00
2022-09-04T04:58:01.472Z,116.00
2022-09-04T05:03:01.566Z,147.00
2022-09-04T05:08:03.933Z,169.00
2022-09-04T05:13:02.337Z,189.00
2022-09-04T05:18:01.230Z,208.00
2022-09-04T05:23:01.158Z,222.00
2022-09-04T05:28:01.124Z,240.00
2022-09-04T05:33:01.026Z,251.00
2022-09-04T05:38:00.952Z,256.00
2022-09-04T05:43:00.896Z,261.00
2022-09-04T05:48:00.850Z,276.00
2022-09-04T05:53:00.746Z,287.00
2022-09-04T05:58:00.727Z,301.00
2022-09-04T06:03:00.718Z,312.00
2022-09-04T06:08:00.620Z,315.00
2022-09-04T06:13:00.522Z,318.00
2022-09-04T06:18:00.444Z,335.00
2022-09-04T06:23:03.053Z,345.00
2022-09-04T06:28:00.325Z,338.00
2022-09-04T06:33:00.260Z,340.00
2022-09-04T06:38:00.271Z,343.00
2022-09-04T06:43:00.147Z,345.00
2022-09-04T06:48:00.101Z,352.00
2022-09-04T06:53:03.990Z,372.00
2022-09-04T06:58:00.337Z,428.00
2022-09-04T07:02:59.931Z,369.00
2022-09-04T07:07:59.873Z,393.00
2022-09-04T07:12:59.744Z,364.00
2022-09-04T07:18:01.430Z,370.00
2022-09-04T07:22:59.654Z,406.00
2022-09-04T07:27:59.708Z,397.00
2022-09-04T07:32:59.539Z,395.00
2022-09-04T07:37:59.449Z,389.00
2022-09-04T07:42:59.597Z,383.00
2022-09-04T07:47:59.320Z,380.00
2022-09-04T07:53:03.038Z,379.00
2022-09-04T07:58:00.203Z,385.00
2022-09-04T08:02:59.130Z,383.00
2022-09-04T08:07:59.051Z,376.00
2022-09-04T08:12:59.033Z,379.00
2022-09-04T08:17:58.983Z,382.00
2022-09-04T08:22:58.924Z,382.00
2022-09-04T08:27:58.828Z,390.00
2022-09-04T08:32:58.744Z,441.00
2022-09-04T08:37:58.696Z,397.00
2022-09-04T08:42:58.653Z,442.00
2022-09-04T08:47:58.585Z,455.00
2022-09-04T08:53:03.141Z,491.00
2022-09-04T08:57:59.452Z,429.00
2022-09-04T09:02:58.436Z,563.00
2022-09-04T09:07:58.326Z,511.00
2022-09-04T09:12:58.245Z,556.00
2022-09-04T09:17:58.506Z,969.00
2022-09-04T09:22:58.119Z,1168.00
2022-09-04T09:27:58.056Z,919.00
2022-09-04T09:32:58.008Z,733.00
2022-09-04T09:38:02.347Z,591.00
2022-09-04T09:42:58.870Z,713.00
2022-09-04T09:47:57.820Z,799.00
2022-09-04T09:52:57.738Z,1011.00
2022-09-04T09:57:57.680Z,685.00
2022-09-04T10:02:57.611Z,536.00
2022-09-04T10:07:57.613Z,401.00
2022-09-04T10:12:57.498Z,441.00
2022-09-04T10:17:57.436Z,395.00
2022-09-04T10:22:57.348Z,343.00
2022-09-04T10:27:57.310Z,348.00
2022-09-04T10:32:57.241Z,405.00
2022-09-04T10:37:57.226Z,390.00
2022-09-04T10:42:57.115Z,438.00
2022-09-04T10:47:57.046Z,440.00
2022-09-04T10:52:57.160Z,446.00
2022-09-04T10:57:56.983Z,442.00
2022-09-04T11:02:56.879Z,438.00
2022-09-04T11:07:56.823Z,434.00
2022-09-04T11:12:56.741Z,432.00
2022-09-04T11:17:56.660Z,429.00
2022-09-04T11:22:56.688Z,437.00
2022-09-04T11:27:56.573Z,445.00
2022-09-04T11:32:56.489Z,453.00
2022-09-04T11:37:57.906Z,456.00
2022-09-04T11:42:56.357Z,453.00
2022-09-04T11:47:56.300Z,465.00
2022-09-04T11:52:56.549Z,526.00
2022-09-04T11:57:56.152Z,629.00
2022-09-04T12:02:56.083Z,769.00
2022-09-04T12:07:56.014Z,713.00
2022-09-04T12:12:56.030Z,753.00
2022-09-04T12:17:55.870Z,673.00
2022-09-04T12:22:55.832Z,578.00
2022-09-04T12:27:55.776Z,585.00
2022-09-04T12:32:55.683Z,582.00
2022-09-04T12:37:55.630Z,666.00
2022-09-04T12:42:55.565Z,812.00
2022-09-04T12:47:57.328Z,874.00
2022-09-04T12:52:55.713Z,815.00
2022-09-04T12:57:55.413Z,788.00
2022-09-04T13:02:55.523Z,906.00
2022-09-04T13:07:55.314Z,1173.00
2022-09-04T13:12:55.247Z,1241.00
2022-09-04T13:17:55.130Z,1258.00
2022-09-04T13:22:55.068Z,1443.00
2022-09-04T13:27:55.012Z,1484.00
2022-09-04T13:32:54.941Z,1363.00
2022-09-04T13:37:55.074Z,1190.00
2022-09-04T13:42:54.833Z,1040.00
2022-09-04T13:47:54.762Z,846.00
2022-09-04T13:52:55.635Z,684.00
2022-09-04T13:57:54.635Z,702.00
2022-09-04T14:02:54.570Z,683.00
2022-09-04T14:07:54.508Z,887.00
2022-09-04T14:12:54.478Z,852.00
2022-09-04T14:17:54.371Z,780.00
2022-09-04T14:22:55.093Z,677.00
2022-09-04T14:27:54.276Z,482.00
2022-09-04T14:32:57.683Z,439.00
2022-09-04T14:37:54.121Z,456.00
2022-09-04T14:42:54.046Z,456.00
2022-09-04T14:47:54.023Z,468.00
2022-09-04T14:52:53.935Z,522.00
2022-09-04T14:57:53.873Z,545.00
2022-09-04T15:02:53.790Z,564.00
2022-09-04T15:07:53.754Z,448.00
2022-09-04T15:12:53.701Z,521.00
2022-09-04T15:17:53.621Z,509.00
2022-09-04T15:22:53.548Z,532.00
2022-09-04T15:27:53.483Z,474.00
2022-09-04T15:32:53.418Z,325.00
2022-09-04T15:37:53.362Z,337.00
2022-09-04T15:42:53.439Z,556.00
2022-09-04T15:47:53.287Z,520.00
2022-09-04T15:52:53.160Z,405.00
2022-09-04T15:57:53.125Z,450.00
2022-09-04T16:02:53.094Z,383.00
2022-09-04T16:07:54.536Z,311.00
2022-09-04T16:12:52.912Z,367.00
2022-09-04T16:17:52.872Z,269.00
2022-09-04T16:22:52.798Z,255.00
2022-09-04T16:27:52.739Z,272.00
2022-09-04T16:32:52.636Z,242.00
2022-09-04T16:37:52.609Z,229.00
2022-09-04T16:42:52.527Z,217.00
2022-09-04T16:47:52.513Z,206.00
2022-09-04T16:52:58.865Z,192.00
2022-09-04T16:57:53.368Z,183.00
2022-09-04T17:02:52.442Z,178.00
2022-09-04T17:07:52.218Z,178.00
2022-09-04T17:12:52.144Z,163.00
2022-09-04T17:17:52.087Z,148.00
2022-09-04T17:28:56.730Z,132.00
2022-09-04T17:29:13.600Z,117.00
2022-09-04T17:34:10.497Z,96.00
2022-09-04T17:40:37.880Z,67.00
2022-09-04T17:43:14.819Z,44.00
2022-09-04T17:47:52.690Z,28.00
2022-09-04T17:52:51.621Z,17.00
2022-09-04T17:57:51.928Z,8.00
2022-09-04T18:02:51.794Z,4.00
2022-09-04T18:08:08.493Z,1.00
2022-09-04T18:12:52.375Z,0.00
2022-09-04T18:17:51.317Z,0.00
2022-09-04T18:22:51.277Z,0.00
2022-09-04T18:27:51.221Z,0.00
2022-09-04T18:37:24.432Z,0.00
2022-09-04T18:37:52.093Z,0.00
2022-09-04T18:50:20.838Z,0.00
2022-09-04T18:50:36.445Z,0.00
2022-09-04T18:52:51.895Z,0.00
2022-09-04T18:57:50.818Z,0.00
2022-09-04T19:02:51.453Z,0.00
2022-09-04T19:07:50.674Z,0.00
2022-09-04T19:12:50.643Z,0.00
2022-09-04T19:17:50.570Z,0.00
2022-09-04T19:22:50.517Z,0.00
2022-09-04T19:27:54.942Z,0.00
2022-09-04T19:32:50.402Z,0.00
2022-09-04T19:42:12.848Z,0.00
2022-09-04T19:46:00.062Z,0.00
2022-09-04T19:47:51.278Z,0.00
2022-09-04T19:53:31.774Z,0.00
2022-09-04T19:57:51.066Z,0.00
2022-09-04T20:02:50.029Z,0.00
2022-09-04T20:07:49.943Z,0.00
2022-09-04T20:12:51.186Z,0.00
2022-09-04T20:17:49.824Z,0.00
2022-09-04T20:22:49.755Z,0.00
2022-09-04T20:27:49.691Z,0.00
2022-09-04T20:32:55.741Z,0.00
2022-09-04T20:37:53.419Z,0.00
2022-09-04T20:42:56.657Z,0.00
2022-09-04T20:52:45.540Z,0.00
2022-09-04T20:53:09.500Z,0.00
2022-09-04T21:03:13.652Z,0.00
2022-09-04T21:03:21.362Z,0.00
2022-09-04T21:07:50.181Z,0.00
2022-09-04T21:12:49.115Z,0.00
2022-09-04T21:17:50.048Z,0.00
2022-09-04T21:22:48.982Z,0.00
2022-09-04T21:27:48.917Z,0.00
2022-09-04T21:32:48.852Z,0.00
2022-09-04T21:37:48.948Z,0.00
2022-09-04T21:42:48.772Z,0.00
2022-09-04T21:47:48.712Z,0.00
2022-09-04T21:52:56.123Z,0.00
2022-09-04T22:02:26.805Z,0.00
2022-09-04T22:02:55.635Z,0.00
2022-09-04T22:12:18.257Z,0.00
2022-09-04T22:13:42.211Z,0.00
2022-09-04T22:17:49.289Z,0.00
2022-09-04T22:22:48.247Z,0.00
2022-09-04T22:28:04.572Z,0.00
2022-09-04T22:32:49.133Z,0.00
2022-09-04T22:37:48.055Z,0.00
2022-09-04T22:42:48.012Z,0.00
2022-09-04T22:47:47.913Z,0.00
2022-09-04T22:52:47.851Z,0.00
2022-09-04T22:57:47.791Z,0.00
2022-09-04T23:03:07.771Z,0.00
2022-09-04T23:13:42.345Z,0.00
2022-09-04T23:14:02.711Z,0.00
2022-09-04T23:19:07.333Z,0.00
2022-09-04T23:26:50.370Z,0.00
2022-09-04T23:27:48.380Z,0.00
2022-09-04T23:32:47.353Z,0.00
2022-09-04T23:37:50.262Z,0.00
2022-09-04T23:42:48.517Z,0.00
2022-09-04T23:47:49.477Z,0.00
2022-09-04T23:52:49.149Z,0.00
2022-09-04T23:57:47.000Z,0.00
